LiveATC.Net - Listen to live air traffic control over the Internet!

Find LiveATC Audio Streams


Airport/ARTCC Code

Frequency Search
(e.g., 124.400, 128.75)
Site-wide search
 


Browse LiveATC Feeds
LiveATC Coverage Map
Top 50 LiveATC Feeds
Bad Weather Areas

LiveATC FAQ
Offer a LiveATC Feed
Contact LiveATC.net
Press Inquiries

LiveATC on iPhone
LiveATC on Android

Windows Phone
Windows 8/10

LiveATC Mobile
(Mobile browser)

ATC Audio Archives
Interesting Recordings

LiveATC Forums

Home Page
About LiveATC.net
Make a Donation
LiveATC Store

Terms of Use
Privacy Policy

Canadian Air Freqs

AIRMETs/SIGMETs

FAA Airport Status
Nat'l Airspace Status
Arrival Demand Charts


Server Software By:
Icecast.org
Liquidsoap


Current Potentially Bad Weather Airports
(updated every 30 minutes - sorted alphabetically by ICAO code)



This page lists LiveATC.net airport areas that may be interesting to listen to because of challenging flying (weather) conditions. Challenging weather conditions include low ceilings, limited visibility, high or gusty winds, or thunderstorms.

Updated: Wed Mar 1 17:40:01 UTC 2017
Click on airport name to go to that airport area's feeds.

CYAM Tower Sault Ste. Marie Airport (Sault Ste. Marie, CA-ON)
WX MAP UNAVAILABLENearest METAR:
CYAM 011700Z 03011KT 5/8SM R12/3500FT/N -SN VV005 M08/M11 A2958 RMK SN8 /S04/ SLP030
CYHZ Del/Gnd/Twr/App Halifax International Airport (Halifax, CA-NS)
WX MAP UNAVAILABLENearest METAR:
CYHZ 011700Z 18018G29KT 3/8SM R23/1600V2200FT/N R14/2000FT/N FG VV001 06/06 A2978 RMK FG8 SLP090
CYMX Ground/Radio Montreal-Mirabel International Airport (Montreal, CA-QC)
cymxNearest METAR:
CYMX 011700Z 04005KT 350V080 5/8SM R06/5500VP6000FT/D R11/5000VP6000FT/D -RA BR VV001 03/03 A2930 RMK FG8 SLP927
CYOW Gnd/Twr/App Ottawa MacDonald Cartier International Airport (Ottawa, CA-ON)
cyowNearest METAR:
CYOW 011700Z 03007KT 1SM R32/3500V5500FT/N R07/5500VP6000FT/N -RA BR OVC003 03/03 A2927 RMK FG4ST4 CIG VRB 2-5 SLP917
CYQB ATIS - French Quebec Jean Lesage International Airport (Quebec, CA-QC)
cyqbNearest METAR:
CYQB 011700Z 07008KT 1SM R06/5000VP6000FT/D -RA BR OVC002 01/00 A2941 RMK FG4SF4 VIS VRB 3/4-11/4 SLP964
CYQI/CZQM CTAF/FIC/Center Yarmouth Airport (Yarmouth, CA-NS)
WX MAP UNAVAILABLENearest METAR:
CYQI 011717Z 19017G23KT 1SM BR VV002 08/08 A2971 RMK FG8 SLP063
CYRQ/CSR3 CTAF/UNICOM Victoriaville Airport (Trois-Rivieres, CA-QC)
WX MAP UNAVAILABLENearest METAR:
CYRQ 011728Z AUTO 04009KT 2SM -RA BR OVC003 02/02 A2931 RMK PRESFR SLP928
CYSB Gnd/Twr/Center Sudbury Airport (Sudbury, CA-ON)
WX MAP UNAVAILABLENearest METAR:
CYSB 011718Z 01023G38KT 3/8SM R22/2600FT/N -SN BLSN VV005 M10/M13 A2943 RMK BLSN8 SLP985
CYVO Gnd/RDO/Center Val-D'Or Airport (Val-D'Or, CA-QC)
WX MAP UNAVAILABLENearest METAR:
CYVO 011700Z CCA 36023KT 1/2SM R18/4000FT/N -SN BLSN VV014 M10/M12 A2955 RMK BLSN8 PRESFR SLP032
ESPA Twr/Control Lulea Airport (Lulea, Sweden)
WX MAP UNAVAILABLENearest METAR:
ESPA 011720Z 26004KT 9000 -SN NSC M04/M04 Q0990
KACK Tower Nantucket Memorial Airport (Nantucket, US-MA)
kackNearest METAR:
KACK 011653Z 20010KT 1/4SM R24/1800FT FG VV002 09/08 A2972 RMK AO2 SLP065 T00890083
KAPN App/Dep/ZMP Alpena County Regional Airport (Alpena, US-MI)
kapnNearest METAR:
KAPN 011714Z AUTO 01017G25KT 1 1/4SM -SN BR FEW008 SCT014 OVC020 M03/M04 A2944 RMK AO2 P0001 T10331039
KARB Gnd/Twr Ann Arbor Municipal Airport (Ann Arbor, US-MI)
karbNearest METAR:
KARB 011725Z 21013KT 2 1/2SM RA BR BKN013 OVC019 12/11 A2936 RMK AO2 VIS 2V4 RAB11 P0002 T01170111
KATW Gnd/Twr/App Outagamie County Regional Airport (Appleton, US-WI)
katwNearest METAR:
KATW 011705Z 33014G20KT 1/4SM R03/1400FT SN OVC005 M03/M03 A2959
KAUG Del/CTAF Augusta State Airport (Augusta, US-ME)
kaugNearest METAR:
KAUG 011653Z AUTO 17007KT M1/4SM FG VV002 07/06 A2955 RMK AO2 RAE17 SLP009 P0000 T00670056
KBDR Del/Gnd/Twr/App Igor I Sikorsky Memorial Airport (Bridgeport, US-CT)
kbdrNearest METAR:
KBDR 011728Z 17012KT 1SM -RA BR FEW002 OVC008 11/09 A2960 RMK AO2 PRESFR P0003 T01060094
KBGR Del/Gnd/Twr Bangor International Airport (Bangor, US-ME)
kbgrNearest METAR:
KBGR 011723Z 17011KT 3/4SM R15/2400V3500FT BR OVC002 08/08 A2952 RMK AO2 SFC VIS 1 1/2 RAE1654 PRESFR P0001 T00780078
KBNA Gnd/Twr Nashville International Airport (Nashville, US-TN)
kbnaNearest METAR:
KBNA 011714Z 22007KT 7SM -RA SCT050 BKN070 BKN090 16/14 A2982 RMK AO2 LTG DSNT E-S P0006 T01610144
MA/NH/RI/CT Area CTAF Fitchburg Municipal Airport (Fitchburg, US-MA)
ksfzNearest METAR:
KSFZ 011725Z AUTO VRB05KT 5SM VCTS RA BR OVC009 13/12 A2959 RMK AO2 LTG DSNT SE AND S TSB14 CIG 005V012 PRESFR P0003
KCDW Del/Gnd/Twr Essex County Airport (Caldwell, US-NJ)
kcdwNearest METAR:
KCDW 011653Z 21007KT 2 1/2SM -RA BR SCT055 BKN070 OVC095 15/14 A2962 RMK AO2 PRESFR SLP035 P0012 T01500139
KCHA Twr/App Lovell Field Airport (Chattanooga, US-TN)
kchaNearest METAR:
KCHA 011653Z 17010G18KT 10SM BKN028 BKN040 OVC250 21/16 A2989 RMK AO2 LTG DSNT N SLP117 OCNL LTGICCG N CB DSNT N MOV NE T02060161
KCID Gnd/Twr/App The Eastern Iowa Airport (Cedar Rapids, US-IA)
kcidNearest METAR:
KCID 011652Z 31022G32KT 10SM BKN016 OVC022 01/M01 A2979 RMK AO2 PK WND 30033/1633 UPB34E39SNE34 SLP095 P0000 T00061011
KCMI Del/Gnd/Twr/App University of Illinois-Willard Airport (Champaign/Urbana, US-IL)
kcmiNearest METAR:
KCMI 011712Z 28026G34KT 9SM OVC015 07/03 A2973 RMK AO2 PK WND 27036/1701 T00670033
KCRW Tower/Approach Yeager Airport (Charleston, US-WV)
kcrwNearest METAR:
KCRW 011654Z 15010KT 5SM RA BR FEW024 OVC080 12/10 A2981 RMK AO2 LTG DSNT SW TSE20 PRESFR SLP091 OCNL LTG DSNT E AND NW CB DSNT E AND NW P0010 T01220100
KDAY Del/Gnd/Twr/App James M Cox Dayton International Airport (Dayton, US-OH)
kdayNearest METAR:
KDAY 011656Z 23023G32KT 10SM BKN022 OVC030 13/10 A2957 RMK AO2 PK WND 24036/1626 SLP009 T01330100
KDXR Ground/Tower Danbury Municipal Airport (Danbury, US-CT)
kdxrNearest METAR:
KDXR 011653Z VRB04KT 4SM -RA BR BKN007 BKN034 OVC090 13/12 A2963 RMK AO2 LTG DSNT E SLP034 P0006 T01280117
NY Departure (Liberty South) Newark Liberty International Airport (Newark, US-NJ)
kewrNearest METAR:
KEWR 011702Z 19006KT 6SM -RA BR FEW011 BKN023 OVC031 16/14 A2963 RMK AO2 LTG DSNT NE AND E FEW V SCT P0000 T01560144
KFKA CTAF Fillmore County Airport (Preston, US-MN)
kfkaNearest METAR:
KFKA 011713Z AUTO 33014G23KT 2 1/2SM -SN BKN014 OVC018 M03/M05 A2980 RMK AO2 T10271050
KFRG ATIS Republic Airport (Farmingdale, US-NY)
kfrgNearest METAR:
KFRG 011709Z 21006KT 1SM BR OVC002 11/11 A2966 RMK AO2 SFC VIS 4 RAE06 P0000 T01110111
KGHG/KPVC CTAF Marshfield Municipal Airport - George Harlow Field (Marshfield, US-MA)
kpvcNearest METAR:
KPVC 011656Z AUTO 19015G21KT 1/2SM FG OVC002 09/09 A2965 RMK AO2 SLP041 T00940089
KGRB Del/Gnd/Twr/App Austin Straubel International Airport (Green Bay, US-WI)
kgrbNearest METAR:
KGRB 011653Z 35013G19KT 1/2SM SN FZFG FEW008 OVC013 M03/M03 A2958 RMK AO2 SLP024 P0002 T10281033 RVRNO
KGRR Gnd/Twr/App Gerald R. Ford International Airport (Grand Rapids, US-MI)
kgrrNearest METAR:
KGRR 011706Z 24015KT 6SM BR OVC004 06/05 A2936 RMK AO2 T00610050
KGSO Del/Gnd/Twr/App/ZTL Piedmont Triad International Airport (Greensboro, US-NC)
kgsoNearest METAR:
KGSO 011654Z 23025G35KT 10SM FEW026 SCT180 BKN250 22/14 A2990 RMK AO2 PK WND 23035/1653 SLP116 T02220144
KGUS Del/Gnd/Twr/App Grissom Air Reserve Base (Peru, US-IN)
kgusNearest METAR:
KGUS 011703Z 27026G35KT 10SM OVC014 10/09 A2954 RMK AO2A
KHFD Ground/Tower Hartford-Brainard Airport (Hartford, US-CT)
khfdNearest METAR:
KHFD 011724Z 19014G21KT 10SM SCT007 BKN014 BKN037 13/12 A2957 RMK AO2 LTG DSNT SE RAE06 P0001 T01280117
KHPN ATIS Westchester County Airport (White Plains, US-NY)
khpnNearest METAR:
KHPN 011656Z COR 18007KT 1/2SM R16/P6000FT -RA FG VV002 12/12 A2965 RMK AO2 SLP039 SFC VIS 3/4 P0013 T01220122 $
KHUL/KPQI/ZBW01/15 Houlton International Airport (Houlton, US-ME)
kpqiNearest METAR:
KPQI 011722Z AUTO 14006KT 9SM -RA SCT003 OVC009 03/02 A2947 RMK AO2 P0000
KHUL/KPQI/ZBW01/15 Houlton International Airport (Houlton, US-ME)
khulNearest METAR:
KHUL 011713Z AUTO 19006KT 3SM BR SCT005 OVC009 06/06 A2948 RMK AO2 RAE10 P0000 T00610056
KHWV CTAF Brookhaven Airport (Shirley, US-NY)
khwvNearest METAR:
KHWV 011656Z AUTO 23007KT 1/2SM -RA FG OVC001 09/09 A2971 RMK AO2 RAB45 SLP060 P0000 T00940094 TSNO
KHYA/KFMH Twr/Cape App Barnstable Municipal Airport-Boardman/Polando Field (Hyannis, US-MA)
khyaNearest METAR:
KHYA 011656Z 20010KT 1/4SM FG VV002 09/09 A2967 RMK AO2 SLP047 T00890089
KHYA/KFMH Twr/Cape App Barnstable Municipal Airport-Boardman/Polando Field (Hyannis, US-MA)
kfmhNearest METAR:
KFMH 011715Z 1/2SM FG OVC002 09/09 A2968 RMK AO2 PWINO FZRANO TSNO WEA/ WIND E19006KT
KIAD Del/Gnd Washington Dulles International Airport (Washington, US-DC)
kiadNearest METAR:
KIAD 011652Z 20024G32KT 10SM FEW030 BKN160 BKN250 23/14 A2965 RMK AO2 PK WND 20032/1650 SLP038 T02280144
KIND Ground Indianapolis International Airport (Indianapolis, US-IN)
kindNearest METAR:
KIND 011654Z 27025G33KT 10SM BKN017 BKN043 BKN050 12/08 A2963 RMK AO2 PK WND 28038/1625 RAB24E37 SLP033 P0000 T01170083
KISP (NY Approach) Long Island Mac Arthur Airport (Islip, US-NY)
kispNearest METAR:
KISP 011656Z 22008KT 1/4SM R06/4000VP6000FT -RA BR OVC002 10/10 A2969 RMK AO2 SFC VIS 1 LTG DSNT N AND W RAB46 SLP054 P0000 T01000100
KJFK NY App (CAMRN) John F Kennedy International Airport (New York, US-NY)
kjfkNearest METAR:
KJFK 011651Z 16003KT 2 1/2SM -RA BR FEW004 OVC019 11/11 A2968 RMK AO2 SFC VIS 3 LTG DSNT NE AND NW RAB12 SLP051 P0001 T01060106
KMKE Tower/App General Mitchell International Airport (Milwaukee, US-WI)
kmkeNearest METAR:
KMKE 011711Z 32011KT 1SM -SN BR OVC006 01/M01 A2956 RMK AO2 P0004 T00061006 RVRNO
KMMU ATIS Morristown Municipal Airport (Morristown, US-NJ)
kmmuNearest METAR:
KMMU 011645Z COR 19008KT 2 1/4SM -RA BR BKN008 BKN020 OVC065 15/14 A2964
KMSN Twr/App Dane County Regional Airport-Truax Field (Madison, US-WI)
kmsnNearest METAR:
KMSN 011708Z 32010KT 1 3/4SM R36/4500VP6000FT -SN BR SCT009 BKN016 OVC040 00/M02 A2962 RMK AO2 SFC VIS 3 P0000 T00001022
KMSO Gnd/Twr/App/ZLC/ZSE Missoula International Airport (Missoula, US-MT)
kmsoNearest METAR:
KMSO 011727Z 00000KT 6SM -SN BR OVC036 M03/M04 A3018 RMK AO2 SNB21 P0000 T10281044
KMTW CTAF Manitowoc County Airport (Manitowoc, US-WI)
kmtwNearest METAR:
KMTW 011727Z AUTO 34015KT 3/4SM -SN BR SCT011 SCT025 OVC031 M02/M04 A2956 RMK AO2 P0000 FZRANO
KMVY Del/Gnd/Twr Martha's Vineyard Airport (Vineyard Haven, US-MA)
kmvyNearest METAR:
KMVY 011653Z 21012G19KT M1/4SM R24/0800V1000FT FG VV002 09/08 A2970 RMK AO2 SLP057 T00940083
KORF Gnd/Twr/App/Radar Norfolk International Airport (Norfolk, US-VA)
korfNearest METAR:
KORF 011651Z 22027G36KT 10SM BKN037 26/17 A2984 RMK AO2 PK WND 22042/1618 SLP105 T02560172 $
KOTM Del/Twr/App/Center Ottumwa Regional Airport (Ottumwa, US-IA)
kotmNearest METAR:
KOTM 011653Z AUTO 31028G37KT 10SM -RA BKN017 BKN026 OVC039 03/M01 A2988 RMK AO2 PK WND 30037/1651 UPB1559E26RAB49 SLP124 P0000 T00331006
KPHF Ground/Tower Newport News/Williamsburg International Airport (Newport News, US-VA)
kphfNearest METAR:
KPHF 011654Z 22023G34KT 10SM SCT038 SCT046 25/17 A2981 RMK AO2 PK WND 21034/1653 PRESFR SLP095 T02500167
KPSC/KRLD/S98/ZSE Tri-Cities Airport (Pasco, US-WA)
kpscNearest METAR:
KPSC 011653Z 23024G31KT 10SM CLR 08/M01 A3032 RMK AO2 PK WND 23031/1649 SLP267 T00831006
KPTK Tower Oakland County International Airport (Pontiac, US-MI)
kptkNearest METAR:
KPTK 011719Z 22009KT 2SM -RA BR OVC007 11/09 A2933 RMK AO2 RAB14 P0000 T01110094
KPVD Del/Gnd/Twr/App Theodore Francis Green State Airport (Providence, US-RI)
kpvdNearest METAR:
KPVD 011720Z VRB05G25KT 2 1/2SM R05/4500VP6000FT +TSRA BR BKN008 OVC015CB 13/11 A2962 RMK AO2 SFC VIS 3 TSB12 FRQ LTGIC SW TS SW MOV E P0005 T01280111
KPWM Gnd/Twr/App #2 Portland International Jetport (Portland, US-ME)
kpwmNearest METAR:
KPWM 011651Z 00000KT 1/8SM FG VV002 06/06 A2958 RMK AO2 SLP015 T00610056
KRAC CTAF John H Batten Airport (Racine, US-WI)
kracNearest METAR:
KRAC 011704Z AUTO 30008KT 3SM -SN BR BKN005 OVC012 02/00 A2957 RMK AO2 P0000 T00170000
KRDU Approach Raleigh-Durham International Airport (Raleigh/Durham, US-NC)
krduNearest METAR:
KRDU 011651Z 23030G36KT 10SM BKN035 BKN250 25/16 A2993 RMK AO2 PK WND 23036/1643 SLP132 T02500156
KRIC Del/Gnd/Twr/App Richmond International Airport (Richmond, US-VA)
kricNearest METAR:
KRIC 011654Z 22025G33KT 10SM SCT037 BKN250 25/16 A2976 RMK AO2 PK WND 22036/1622 SLP082 T02500161
KROA Gnd/Twr/App Roanoke Regional Airport/Woodrum Field (Roanoke, US-VA)
kroaNearest METAR:
KROA 011729Z 31026G40KT 7SM -RA FEW046 OVC070 15/09 A2989 RMK AO2 PK WND 31051/1714 WSHFT 1709 RAB12 P0005 T01500094
KSTL Del/Gnd/Twr Lambert-St Louis International Airport (St. Louis, US-MO)
kstlNearest METAR:
KSTL 011707Z 28023G32KT 10SM BKN033 09/02 A2990 RMK AO2 PK WND 27032/1705 T00940022
KTAN CTAF Taunton Municipal Airport (Taunton, US-MA)
ktanNearest METAR:
KTAN 011704Z AUTO 22009G17KT 10SM OVC005 13/11 A2964 RMK AO2 T01280111
KTOL Del/Gnd/Twr/App Toledo Express Airport (Toledo, US-OH)
ktolNearest METAR:
KTOL 011718Z AUTO 24020G30KT 10SM SCT025 OVC037 14/10 A2941 RMK AO2 PK WND 24030/1657 T01390100
KTRI Gnd/Twr/App Tri-Cities Regional Airport (Bristol/Johnson/Kingsport, US-TN)
ktriNearest METAR:
KTRI 011653Z 21003KT 10SM FEW050 BKN070 OVC100 19/14 A2988 RMK AO2 LTG DSNT W-N SLP100 T01890139
KTUP Ground/Tower Tupelo Regional Airport (Tupelo, US-MS)
ktupNearest METAR:
KTUP 011710Z 22018G28KT 10SM SCT029 SCT037 BKN065 23/18 A2989 RMK AO2 PK WND 22028/1709 LTG DSNT SW-N T02330178
KTVC Gnd/Twr/ZMP Cherry Capital Airport (Traverse City, US-MI)
ktvcNearest METAR:
KTVC 011653Z 02014G21KT 3/4SM -SN BR BKN006 OVC013 M02/M03 A2944 RMK AO2 SLP974 P0004 T10171033
KTYS Del/Gnd/Twr/App McGhee Tyson Airport (Knoxville, US-TN)
ktysNearest METAR:
KTYS 011653Z 21025G30KT 10SM BKN030 BKN045 OVC085 22/15 A2985 RMK AO2 PK WND 22037/1603 LTG DSNT N SLP103 T02170150
KUES Gnd/Twr Waukesha County Airport (Waukesha, US-WI)
kuesNearest METAR:
KUES 011645Z 31008KT 3/4SM -SN OVC007 M01/M01 A2957
KUOX CTAF/ZME University-Oxford Airport (Oxford, US-MS)
kuoxNearest METAR:
KUOX 011715Z AUTO 32008KT 030V030 10SM FEW001 BKN028 BKN033 15/13 A2994 RMK AO2 LTG DSNT E AND SE
LBSF Tower/Approach Sofia International Airport (Sofia, Bulgaria)
WX MAP UNAVAILABLENearest METAR:
LBSF 011730Z 28025G36KT 9999 -SHRA FEW014 SCT037TCU OVC043 08/06 Q1006 TEMPO 28030G40KT SHRA
LTBA Twr/App #1 Ataturk Airport (Istanbul, Turkey)
WX MAP UNAVAILABLENearest METAR:
LTBA 011720Z 26003KT 220V320 1400 0500SW R35R/0700N R17L/1500N R05/1400U R23/P1500D BCFG VV001 06/05 Q1009 NOSIG
LUKK Control Chisinau International Airport (Chisinau, Moldova)
WX MAP UNAVAILABLENearest METAR:
LUKK 011730Z 16008KT 0750 R08/0600V1700U FG VV001 06/05 Q1005 R08/CLRD// TEMPO 0300 FG VV000
PADQ Gnd/Twr/ZAN Kodiak Airport (Kodiak, US-AK)
padqNearest METAR:
PADQ 011653Z 30015G24KT 8SM -SN FEW035 SCT043 OVC060 M06/M12 A2974 RMK AO2 PK WND 30029/1638 SNB13 SLP073 P0000 T10611122
Matsu CTAF Palmer Municipal Airport (Palmer, US-AK)
paaqNearest METAR:
PAAQ 011720Z 04031G42KT 2 1/2SM BLSN CLR M11/M20 A2980 RMK AO2 PK WND 04044/1708 VIS 1 1/4V3 T11061200
Matsu CTAF Palmer Municipal Airport (Palmer, US-AK)
pawsNearest METAR:
PAWS 011716Z AUTO 07024G38KT 5SM CLR M12/M23 A2992 RMK AO1
RI Area Misc/USCG Groton-New London Airport (Groton, US-CT)
kuuuNearest METAR:
KUUU 011714Z AUTO 23009G16KT 200V270 1/4SM TS FG VV002 09/09 A2970 RMK AO2 LTG DSNT W AND NW TSB14 PRESRR T00940094
RI Area Misc/USCG Groton-New London Airport (Groton, US-CT)
kgonNearest METAR:
KGON 011729Z 21008G17KT 3/4SM R05/2800V5000FT VCTS RA BR VV002 09/08 A2966 RMK AO2 LTG DSNT NE TSE00 P0007 T00890083
RKSG Gnd/Twr/App Pyongtaek-Desiderio AAF Airport (A 511) (Pyeongtaek, Korea, Republic of)
WX MAP UNAVAILABLENearest METAR:
RKSG 011658Z 31007KT 1 1/2SM -RA BR OVC010 03/03 A2989 RMK AO2A RAE05DZB05E08RAB08 SLP125 P0002 T00270027 $
RKSO Gnd/Twr/App Osan Air Base Airport (K 55) (Pyeongtaek, Korea, Republic of)
WX MAP UNAVAILABLENearest METAR:
RKSO 011658Z 29003KT 1 1/4SM -RA BR BKN010 03/01 A2990 RMK SLPNO AO2A WND DATA ESTMD ALSTG ESTMD P0001 $
UAAA Tower/Approach Almaty International Airport (Almaty, Kazakhstan)
WX MAP UNAVAILABLENearest METAR:
UAAA 011700Z 33002MPS 1200 R23R/P2000N R23L/P2000N FZDZ BR OVC002 M00/M01 Q1024 R88/65D TEMPO 0600 FZDZ FZFG OVC002 RMK QBB070
UNNT Gnd/Twr/App/Radar/Misc Tolmachevo Airport (Novosibirsk, Russia)
WX MAP UNAVAILABLENearest METAR:
UNNT 011700Z 25003MPS 6000 -SN NSC M04/M05 Q1020 R25/290150 R16/490145 NOSIG RMK QFE755/1007
URMT Twr/App/Control Stavropol Shpakovskoye Airport (Stavropol, Russia)
WX MAP UNAVAILABLENearest METAR:
URMT 011700Z 15007MPS 4000 BR BKN002 01/01 Q1018 R07/150060 TEMPO 0400 FG OVC001 RMK QBB080 OBST OBSC QFE723
YPPH Approach Perth International Airport (Perth, AU-WA)
WX MAP UNAVAILABLENearest METAR:
YPPH 011716Z 05004KT 340V130 9999 -TSRA FEW080CB SCT120 BKN160 25/20 Q1015 INTER 1716/2016 VRB25G45KT 4000 TSRA SCT030 FEW060CB